Terminal Aerodrome Forecast
Issued by NWS Charleston, WV

Home | Current Version | Previous Version | Text Only | Print | Product List | Glossary On
Versions: 1 2 3 4 5 6 7 8 9 10 11 12 13 14 15 16 17 18 19 20
403
FTUS41 KRLX 080326 AAA
TAFEKN
TAF AMD
KEKN 080326Z 0803/0824 00000KT P6SM SKC
     FM081400 18004KT 3SM BR SKC
     FM081600 18005KT 2SM -RASN BKN028
     FM082100 24005KT 2SM -RA OVC006=

USA.gov is the U.S. government's official web portal to all federal, state and local government web resources and services.